Time;durP1;ratioP1;P1;durP2;ratioP2;P2;SDS_P1;SDS_P2;PMS_P1;PMS_P2;Temp;Humidity;BMP_temperature;BMP_pressure;BME280_temperature;BME280_humidity;BME280_pressure;Samples;Min_cycle;Max_cycle;Signal;HPM_P1;HPM_P2
2022/03/31 00:00:38;;;;;;;24.30;16.90;;;7.80;99.90;;;;;;5069287;28;20178;-68
2022/03/31 00:03:06;;;;;;;18.60;16.27;;;7.70;99.90;;;;;;5070770;28;20436;-67
2022/03/31 00:05:32;;;;;;;19.63;15.47;;;7.70;99.90;;;;;;5070137;28;20301;-68
2022/03/31 00:08:03;;;;;;;18.87;16.40;;;7.80;99.90;;;;;;5068711;28;20504;-67
2022/03/31 00:10:36;;;;;;;23.37;17.27;;;7.60;99.90;;;;;;5070925;28;20184;-67
2022/03/31 00:13:04;;;;;;;20.30;17.03;;;7.60;99.90;;;;;;5070409;28;20174;-67
2022/03/31 00:15:31;;;;;;;25.60;18.30;;;7.60;99.90;;;;;;5070326;28;20178;-67
2022/03/31 00:17:58;;;;;;;22.13;18.93;;;7.70;99.90;;;;;;5070690;28;20214;-67
2022/03/31 00:20:25;;;;;;;21.07;19.07;;;7.70;99.90;;;;;;5070309;28;20305;-67
2022/03/31 00:22:50;;;;;;;20.53;18.43;;;7.60;99.90;;;;;;5070579;28;20565;-67
2022/03/31 00:25:16;;;;;;;26.10;19.20;;;7.70;99.90;;;;;;5070471;28;20177;-67
2022/03/31 00:27:42;;;;;;;19.83;17.83;;;7.70;99.90;;;;;;5070410;28;20613;-67
2022/03/31 00:30:10;;;;;;;21.03;18.77;;;7.80;99.90;;;;;;5069324;28;20186;-67
2022/03/31 00:32:37;;;;;;;20.47;17.60;;;7.80;99.90;;;;;;5069400;28;20212;-67
2022/03/31 00:35:04;;;;;;;21.60;17.93;;;7.80;99.90;;;;;;5050415;28;20198;-67
2022/03/31 00:37:30;;;;;;;21.30;17.87;;;7.80;99.90;;;;;;5053761;28;20197;-67
2022/03/31 00:39:56;;;;;;;24.30;18.63;;;7.70;99.90;;;;;;5073229;28;20181;-67
2022/03/31 00:42:22;;;;;;;21.20;17.73;;;7.70;99.90;;;;;;5074444;28;20206;-67
2022/03/31 00:44:48;;;;;;;22.33;18.67;;;7.60;99.90;;;;;;5073890;28;20414;-67
2022/03/31 00:47:15;;;;;;;20.20;18.07;;;7.50;99.90;;;;;;5073935;28;20276;-67
2022/03/31 00:49:40;;;;;;;22.00;19.57;;;7.40;99.90;;;;;;5073255;28;20235;-67
2022/03/31 00:52:07;;;;;;;22.60;19.50;;;7.40;99.90;;;;;;5073341;28;20186;-67
2022/03/31 00:54:33;;;;;;;21.40;19.30;;;7.40;99.90;;;;;;5073363;28;20182;-67
2022/03/31 00:57:02;;;;;;;23.33;20.10;;;7.40;99.90;;;;;;5073930;28;20198;-67
2022/03/31 00:59:29;;;;;;;25.73;20.80;;;7.50;99.90;;;;;;5073873;28;20565;-67
2022/03/31 01:01:56;;;;;;;25.43;20.97;;;7.50;99.90;;;;;;5073864;28;20170;-67
2022/03/31 01:04:22;;;;;;;23.93;21.20;;;7.50;99.90;;;;;;5073517;28;20637;-68
2022/03/31 01:06:49;;;;;;;27.40;22.50;;;7.50;99.90;;;;;;5073481;28;20261;-68
2022/03/31 01:09:15;;;;;;;23.53;20.10;;;7.50;99.90;;;;;;5072374;28;20178;-68
2022/03/31 01:11:41;;;;;;;24.17;21.20;;;7.50;99.90;;;;;;5073487;28;20189;-68
2022/03/31 01:14:08;;;;;;;25.07;21.43;;;7.50;99.90;;;;;;5073821;28;20181;-67
2022/03/31 01:16:34;;;;;;;32.53;21.03;;;7.50;99.90;;;;;;5070566;28;20221;-67
2022/03/31 01:19:08;;;;;;;25.40;21.83;;;7.50;99.90;;;;;;5072027;28;20217;-68
2022/03/31 01:21:41;;;;;;;24.53;21.57;;;7.50;99.90;;;;;;5073558;28;20194;-67
2022/03/31 01:24:08;;;;;;;29.53;21.20;;;7.40;99.90;;;;;;5072061;28;20213;-66
2022/03/31 01:26:40;;;;;;;27.53;21.73;;;7.40;99.90;;;;;;5072936;28;20200;-67
2022/03/31 01:29:08;;;;;;;27.50;20.90;;;7.30;99.90;;;;;;5072230;28;20583;-67
2022/03/31 01:31:34;;;;;;;24.10;21.50;;;7.30;99.90;;;;;;5073363;28;20719;-67
2022/03/31 01:33:59;;;;;;;24.20;20.73;;;7.20;99.90;;;;;;5072738;28;20249;-67
2022/03/31 01:36:26;;;;;;;27.17;22.23;;;7.20;99.90;;;;;;5072333;28;20241;-68
2022/03/31 01:38:52;;;;;;;25.30;21.13;;;7.20;99.90;;;;;;5072836;28;20204;-67
2022/03/31 01:41:18;;;;;;;28.63;21.67;;;7.20;99.90;;;;;;5072927;28;20253;-67
2022/03/31 01:43:43;;;;;;;27.80;23.00;;;7.20;99.90;;;;;;5071916;28;20224;-67
2022/03/31 01:46:09;;;;;;;23.20;20.20;;;7.30;99.90;;;;;;5070824;28;20257;-67
2022/03/31 01:48:35;;;;;;;23.67;21.17;;;7.20;99.90;;;;;;5071467;28;20197;-66
2022/03/31 01:51:05;;;;;;;23.83;20.63;;;7.20;99.90;;;;;;5071759;28;20170;-66
2022/03/31 01:53:36;;;;;;;27.47;21.47;;;7.20;99.90;;;;;;5071082;28;20205;-67
2022/03/31 01:56:02;;;;;;;28.90;22.40;;;7.10;99.90;;;;;;5071043;28;20181;-67
2022/03/31 01:58:27;;;;;;;25.03;21.90;;;7.10;99.90;;;;;;5071096;28;20185;-66
2022/03/31 02:00:53;;;;;;;29.53;22.90;;;7.10;99.90;;;;;;5072146;28;20174;-66
2022/03/31 02:03:19;;;;;;;33.10;22.93;;;7.10;99.90;;;;;;5070112;28;20229;-67
2022/03/31 02:05:45;;;;;;;24.13;21.60;;;7.00;99.90;;;;;;5072564;28;20489;-67
2022/03/31 02:08:10;;;;;;;25.97;21.20;;;7.10;99.90;;;;;;5070261;28;20289;-67
2022/03/31 02:10:36;;;;;;;28.27;24.17;;;7.00;99.90;;;;;;5072721;28;20177;-67
2022/03/31 02:13:02;;;;;;;31.20;24.73;;;7.10;99.90;;;;;;5071731;28;20177;-67
2022/03/31 02:15:31;;;;;;;29.80;22.87;;;7.10;99.90;;;;;;5072509;28;20646;-68
2022/03/31 02:17:57;;;;;;;31.30;23.30;;;7.10;99.90;;;;;;5071219;28;20312;-67
2022/03/31 02:20:24;;;;;;;30.17;23.23;;;7.10;99.90;;;;;;5071182;28;20245;-68
2022/03/31 02:22:50;;;;;;;34.73;25.03;;;7.10;99.90;;;;;;5071723;28;20206;-68
2022/03/31 02:25:16;;;;;;;30.33;23.83;;;7.10;99.90;;;;;;5071266;28;20205;-68
2022/03/31 02:27:42;;;;;;;32.67;23.63;;;7.10;99.90;;;;;;5070365;28;20194;-67
2022/03/31 02:30:08;;;;;;;29.47;24.13;;;7.20;99.90;;;;;;5071380;28;20555;-68
2022/03/31 02:32:35;;;;;;;37.97;25.07;;;7.10;99.90;;;;;;5070429;28;20544;-68
2022/03/31 02:35:01;;;;;;;34.27;25.43;;;7.10;99.90;;;;;;5070733;28;20269;-68
2022/03/31 02:37:26;;;;;;;34.00;25.77;;;7.00;99.90;;;;;;5071768;28;20281;-68
2022/03/31 02:39:52;;;;;;;34.80;26.27;;;7.00;99.90;;;;;;5070395;28;20178;-67
2022/03/31 02:42:18;;;;;;;32.20;24.60;;;7.00;99.90;;;;;;5071514;28;20208;-68
2022/03/31 02:44:44;;;;;;;38.83;28.37;;;7.00;99.90;;;;;;5071566;28;20173;-69
2022/03/31 02:47:10;;;;;;;30.73;24.67;;;7.10;99.90;;;;;;5071709;28;20627;-68
2022/03/31 02:49:36;;;;;;;34.17;26.00;;;7.10;99.90;;;;;;5070145;28;20185;-69
2022/03/31 02:52:03;;;;;;;37.33;26.30;;;7.10;99.90;;;;;;5070329;28;20565;-68
2022/03/31 02:57:13;;;;;;;37.93;27.03;;;7.10;99.90;;;;;;5071804;28;20519;-68
2022/03/31 02:59:39;;;;;;;35.87;26.47;;;7.10;99.90;;;;;;5070788;28;20222;-68
2022/03/31 03:02:05;;;;;;;39.83;26.10;;;7.10;99.90;;;;;;5069891;28;20181;-68
2022/03/31 03:04:31;;;;;;;40.83;27.50;;;7.10;99.90;;;;;;5070315;28;20178;-68
2022/03/31 03:06:56;;;;;;;41.33;27.43;;;7.10;99.90;;;;;;5069684;28;20615;-68
2022/03/31 03:09:22;;;;;;;39.10;27.07;;;7.10;99.90;;;;;;5070244;28;20225;-68
2022/03/31 03:11:48;;;;;;;34.17;27.27;;;7.20;99.90;;;;;;5069585;28;20265;-68
2022/03/31 03:14:14;;;;;;;38.30;27.53;;;7.20;99.90;;;;;;5069699;28;20285;-68
2022/03/31 03:16:40;;;;;;;37.70;25.30;;;7.20;99.90;;;;;;5068027;28;20332;-68
2022/03/31 03:19:07;;;;;;;46.97;27.73;;;7.10;99.90;;;;;;5071002;28;20170;-68
2022/03/31 03:21:34;;;;;;;42.23;26.20;;;7.00;99.90;;;;;;5071420;28;20549;-67
2022/03/31 03:24:04;;;;;;;43.87;27.17;;;7.00;99.90;;;;;;5069159;28;20300;-68
2022/03/31 03:26:30;;;;;;;40.57;26.67;;;7.00;99.90;;;;;;5069580;28;20570;-67
2022/03/31 03:28:56;;;;;;;41.37;25.50;;;7.00;99.90;;;;;;5071694;28;20174;-67
2022/03/31 03:31:22;;;;;;;47.23;28.57;;;7.00;99.90;;;;;;5070211;28;20683;-67
2022/03/31 03:33:47;;;;;;;42.13;29.53;;;6.90;99.90;;;;;;5071098;28;20266;-68
2022/03/31 03:36:16;;;;;;;44.87;27.07;;;6.80;99.90;;;;;;5070065;28;20247;-68
2022/03/31 03:38:42;;;;;;;38.83;26.90;;;6.70;99.90;;;;;;5070116;28;20555;-68
2022/03/31 03:41:10;;;;;;;47.60;29.83;;;6.70;99.90;;;;;;5070654;28;20391;-68
2022/03/31 03:43:37;;;;;;;42.47;30.87;;;6.60;99.90;;;;;;5069340;28;20209;-68
2022/03/31 03:46:03;;;;;;;49.23;29.37;;;6.60;99.90;;;;;;5069128;28;20181;-68
2022/03/31 03:48:28;;;;;;;40.37;27.37;;;6.60;99.90;;;;;;5069010;28;20204;-68
2022/03/31 03:50:55;;;;;;;42.73;28.33;;;6.50;99.90;;;;;;5068411;28;20220;-68
2022/03/31 03:53:20;;;;;;;48.50;26.43;;;6.40;99.90;;;;;;5069461;28;20273;-68
2022/03/31 03:55:46;;;;;;;43.93;29.50;;;6.50;99.90;;;;;;5070729;28;20257;-68
2022/03/31 03:58:11;;;;;;;43.73;28.23;;;6.50;99.90;;;;;;5070163;28;20233;-68
2022/03/31 04:00:37;;;;;;;45.17;28.17;;;6.40;99.90;;;;;;5070983;28;20206;-68
2022/03/31 04:03:03;;;;;;;37.67;27.00;;;6.40;99.90;;;;;;5071025;28;20579;-68
2022/03/31 04:05:28;;;;;;;43.97;26.90;;;6.40;99.90;;;;;;5070817;28;20182;-68
2022/03/31 04:07:54;;;;;;;39.53;27.83;;;6.40;99.90;;;;;;5070762;28;20676;-68
2022/03/31 04:10:20;;;;;;;47.20;29.13;;;6.40;99.90;;;;;;5071002;28;20225;-68
2022/03/31 04:12:45;;;;;;;53.47;29.17;;;6.50;99.90;;;;;;5074739;28;20185;-68
2022/03/31 04:15:13;;;;;;;44.00;29.63;;;6.50;99.90;;;;;;5074440;28;20278;-68
2022/03/31 04:17:39;;;;;;;45.80;29.17;;;6.40;99.90;;;;;;5073840;28;20266;-68
2022/03/31 04:20:06;;;;;;;38.90;27.97;;;6.40;99.90;;;;;;5073097;28;20500;-68
2022/03/31 04:22:33;;;;;;;45.00;29.00;;;6.40;99.90;;;;;;5074381;28;20213;-68
2022/03/31 04:24:59;;;;;;;47.67;27.63;;;6.30;99.90;;;;;;5074344;28;20194;-68
2022/03/31 04:27:25;;;;;;;45.13;28.00;;;6.30;99.90;;;;;;5074574;28;20273;-68
2022/03/31 04:29:51;;;;;;;43.30;27.03;;;6.20;99.90;;;;;;5073188;28;20383;-68
2022/03/31 04:32:16;;;;;;;42.87;28.07;;;6.20;99.90;;;;;;5073518;28;20316;-68
2022/03/31 04:34:42;;;;;;;44.17;28.60;;;6.20;99.90;;;;;;5074269;28;20175;-68
2022/03/31 04:37:08;;;;;;;44.60;26.90;;;6.30;99.90;;;;;;5074211;28;20200;-68
2022/03/31 04:39:33;;;;;;;46.40;29.00;;;6.20;99.90;;;;;;5073286;28;20182;-68
2022/03/31 04:41:59;;;;;;;40.90;27.57;;;6.20;99.90;;;;;;5072846;28;20209;-68
2022/03/31 04:44:25;;;;;;;42.07;26.57;;;6.20;99.90;;;;;;5074333;28;20545;-67
2022/03/31 04:46:50;;;;;;;41.63;27.30;;;6.20;99.90;;;;;;5072234;28;20718;-67
2022/03/31 04:49:16;;;;;;;49.90;28.43;;;6.20;99.90;;;;;;5073736;28;20214;-68
2022/03/31 04:51:42;;;;;;;46.60;29.73;;;6.20;99.90;;;;;;5073194;28;20635;-68
2022/03/31 04:54:07;;;;;;;48.73;30.30;;;6.20;99.90;;;;;;5070922;28;20182;-68
2022/03/31 04:56:33;;;;;;;44.17;27.93;;;6.10;99.90;;;;;;5072644;28;20201;-68
2022/03/31 04:58:59;;;;;;;47.53;27.97;;;6.10;99.90;;;;;;5074053;28;20659;-68
2022/03/31 05:01:25;;;;;;;45.70;28.13;;;6.10;99.90;;;;;;5073882;28;20185;-68
2022/03/31 05:03:51;;;;;;;50.00;28.00;;;6.00;99.90;;;;;;5074146;28;20640;-68
2022/03/31 05:06:17;;;;;;;46.07;28.07;;;6.00;99.90;;;;;;5072872;28;20288;-68
2022/03/31 05:08:43;;;;;;;46.93;27.90;;;6.00;99.90;;;;;;5072146;28;20269;-68
2022/03/31 05:11:08;;;;;;;50.60;28.53;;;6.00;99.90;;;;;;5072365;28;20182;-68
2022/03/31 05:13:34;;;;;;;47.97;29.47;;;6.00;99.90;;;;;;5073890;28;20548;-68
2022/03/31 05:16:00;;;;;;;44.83;27.93;;;6.00;99.90;;;;;;5073241;28;20189;-68
2022/03/31 05:18:25;;;;;;;42.90;29.03;;;5.90;99.90;;;;;;5072096;28;20178;-68
2022/03/31 05:20:52;;;;;;;51.20;29.37;;;5.90;99.90;;;;;;5071651;28;20689;-68
2022/03/31 05:23:18;;;;;;;46.57;26.83;;;6.00;99.90;;;;;;5072398;28;20201;-68
2022/03/31 05:25:45;;;;;;;42.53;28.43;;;5.90;99.90;;;;;;5071930;28;20182;-68
2022/03/31 05:28:11;;;;;;;45.03;28.20;;;6.00;99.90;;;;;;5073390;28;20606;-68
2022/03/31 05:30:49;;;;;;;42.83;27.93;;;6.00;99.90;;;;;;5072175;28;20170;-68
2022/03/31 05:33:15;;;;;;;43.67;27.33;;;6.00;99.90;;;;;;5073680;28;20186;-68
2022/03/31 05:35:41;;;;;;;47.20;27.13;;;6.00;99.90;;;;;;5071879;28;20260;-68
2022/03/31 05:38:07;;;;;;;47.43;28.50;;;6.00;99.90;;;;;;5072009;28;20289;-68
2022/03/31 05:40:32;;;;;;;49.47;30.10;;;6.00;99.90;;;;;;5071840;28;20656;-68
2022/03/31 05:42:58;;;;;;;43.97;32.27;;;6.00;99.90;;;;;;5070733;28;20637;-68
2022/03/31 05:45:25;;;;;;;44.93;28.23;;;6.10;99.90;;;;;;5071821;28;20213;-68
2022/03/31 05:47:52;;;;;;;43.40;28.47;;;6.10;99.90;;;;;;5072862;28;20563;-68
2022/03/31 05:50:18;;;;;;;43.67;29.10;;;6.10;99.90;;;;;;5072278;28;20174;-68
2022/03/31 05:52:44;;;;;;;49.87;28.07;;;6.10;99.90;;;;;;5072707;28;20189;-68
2022/03/31 05:55:14;;;;;;;47.97;25.90;;;6.10;99.90;;;;;;5072346;28;20519;-69
2022/03/31 05:57:40;;;;;;;44.27;27.97;;;6.10;99.90;;;;;;5075747;28;20197;-69
2022/03/31 06:00:09;;;;;;;44.23;27.37;;;6.10;99.90;;;;;;5078869;28;20686;-69
2022/03/31 06:02:36;;;;;;;42.73;24.77;;;6.10;99.90;;;;;;5104186;28;20213;-68
2022/03/31 06:05:02;;;;;;;47.57;27.90;;;6.10;99.90;;;;;;5070956;28;20213;-69
2022/03/31 06:07:27;;;;;;;52.97;26.37;;;6.20;99.90;;;;;;5070420;28;20224;-68
2022/03/31 06:09:53;;;;;;;39.73;26.93;;;6.20;99.90;;;;;;5071388;28;20716;-69
2022/03/31 06:12:19;;;;;;;41.90;24.87;;;6.10;99.90;;;;;;5071106;28;20178;-68
2022/03/31 06:14:45;;;;;;;38.33;24.77;;;6.10;99.90;;;;;;5070973;28;20186;-69
2022/03/31 06:17:12;;;;;;;44.30;25.57;;;6.10;99.90;;;;;;5072549;28;20194;-69
2022/03/31 06:19:38;;;;;;;45.73;25.50;;;6.10;99.90;;;;;;5070389;28;20184;-69
2022/03/31 06:22:03;;;;;;;35.40;23.10;;;6.10;99.90;;;;;;5071707;28;20265;-69
2022/03/31 06:24:29;;;;;;;38.10;25.10;;;6.00;99.90;;;;;;5071258;28;20718;-68
2022/03/31 06:26:57;;;;;;;41.50;26.37;;;6.00;99.90;;;;;;5070127;28;20202;-69
2022/03/31 06:29:25;;;;;;;43.63;25.13;;;6.00;99.90;;;;;;5070648;28;20182;-68
2022/03/31 06:31:51;;;;;;;39.57;25.97;;;6.00;99.90;;;;;;5071988;28;20170;-67
2022/03/31 06:34:18;;;;;;;47.90;25.43;;;6.10;99.90;;;;;;5071347;28;20182;-68
2022/03/31 06:36:44;;;;;;;43.17;26.23;;;6.10;99.90;;;;;;5071676;28;20243;-68
2022/03/31 06:39:10;;;;;;;36.00;23.17;;;6.20;99.90;;;;;;5070471;28;20182;-67
2022/03/31 06:41:35;;;;;;;35.80;23.53;;;6.20;99.90;;;;;;5072005;28;20213;-67
2022/03/31 06:44:01;;;;;;;41.07;24.30;;;6.20;99.90;;;;;;5070249;28;20753;-68
2022/03/31 06:46:26;;;;;;;41.33;24.80;;;6.40;99.90;;;;;;5069598;28;20504;-67
2022/03/31 06:48:52;;;;;;;42.93;25.90;;;6.50;99.90;;;;;;5070494;28;20178;-67
2022/03/31 06:51:18;;;;;;;44.90;26.50;;;6.50;99.90;;;;;;5071779;28;20186;-68
2022/03/31 06:53:44;;;;;;;41.30;26.43;;;6.50;99.90;;;;;;5071899;28;20175;-67
2022/03/31 06:56:13;;;;;;;49.47;28.00;;;6.60;99.90;;;;;;5070854;28;20178;-67
2022/03/31 06:58:39;;;;;;;39.93;26.07;;;6.60;99.90;;;;;;5072086;28;20165;-67
2022/03/31 07:01:06;;;;;;;46.43;29.40;;;6.50;99.90;;;;;;5070054;28;20281;-67
2022/03/31 07:03:31;;;;;;;46.47;27.33;;;6.60;99.90;;;;;;5069973;28;20218;-66
2022/03/31 07:05:57;;;;;;;43.37;26.23;;;6.60;99.90;;;;;;5069679;28;20268;-67
2022/03/31 07:08:23;;;;;;;50.03;25.80;;;6.70;99.90;;;;;;5071246;28;20182;-67
2022/03/31 07:10:49;;;;;;;42.77;26.23;;;6.80;99.90;;;;;;5076151;28;20181;-66
2022/03/31 07:13:14;;;;;;;38.53;25.87;;;6.90;99.90;;;;;;5091826;28;20180;-67
2022/03/31 07:15:40;;;;;;;37.80;26.13;;;7.00;99.90;;;;;;5078790;28;20617;-67
2022/03/31 07:18:06;;;;;;;40.33;23.87;;;7.00;99.90;;;;;;5068794;28;20202;-68
2022/03/31 07:20:33;;;;;;;29.63;22.83;;;7.10;99.90;;;;;;5071263;28;20204;-67
2022/03/31 07:22:59;;;;;;;37.23;26.43;;;7.10;99.90;;;;;;5070041;28;20210;-67
2022/03/31 07:25:27;;;;;;;36.73;25.03;;;7.20;99.90;;;;;;5070812;28;20266;-67
2022/03/31 07:27:53;;;;;;;34.20;22.83;;;7.30;99.90;;;;;;5071393;28;20284;-68
2022/03/31 07:30:20;;;;;;;34.23;23.33;;;7.30;99.90;;;;;;5071193;28;20261;-66
2022/03/31 07:32:47;;;;;;;30.67;22.87;;;7.40;99.90;;;;;;5071090;28;20185;-67
2022/03/31 07:35:12;;;;;;;28.77;23.00;;;7.60;99.90;;;;;;5069907;28;20197;-68
2022/03/31 07:37:38;;;;;;;29.30;22.17;;;7.60;99.90;;;;;;5070914;28;20455;-67
2022/03/31 07:40:04;;;;;;;27.43;19.90;;;7.40;99.90;;;;;;5103258;28;20182;-67
2022/03/31 07:42:30;;;;;;;32.00;19.70;;;7.20;99.90;;;;;;5069167;28;20660;-68
2022/03/31 07:44:56;;;;;;;26.37;21.03;;;7.10;99.90;;;;;;5070083;28;20262;-67
2022/03/31 07:47:21;;;;;;;26.90;20.87;;;7.00;99.90;;;;;;5069950;28;20276;-68
2022/03/31 07:49:49;;;;;;;28.67;21.27;;;7.00;99.90;;;;;;5068116;28;20174;-67
2022/03/31 07:52:15;;;;;;;29.23;20.70;;;6.90;99.90;;;;;;5069815;28;20232;-67
2022/03/31 07:54:41;;;;;;;32.33;20.07;;;7.00;99.90;;;;;;5070968;28;20208;-68
2022/03/31 07:57:07;;;;;;;27.33;20.73;;;7.00;99.90;;;;;;5071147;28;20225;-67
2022/03/31 07:59:33;;;;;;;28.30;20.30;;;7.20;99.90;;;;;;5069669;28;20185;-68
2022/03/31 08:02:00;;;;;;;28.40;19.67;;;7.30;99.90;;;;;;5070270;28;20174;-67
2022/03/31 08:04:27;;;;;;;27.70;19.80;;;7.30;99.90;;;;;;5069304;28;20190;-68
2022/03/31 08:06:53;;;;;;;26.97;19.70;;;7.30;99.90;;;;;;5070846;28;20265;-68
2022/03/31 08:09:21;;;;;;;31.03;21.27;;;7.40;99.90;;;;;;5069020;28;20178;-68
2022/03/31 08:11:49;;;;;;;27.37;20.73;;;7.60;99.90;;;;;;5071141;28;20182;-68
2022/03/31 08:14:23;;;;;;;25.13;19.70;;;7.70;99.90;;;;;;5070249;28;20178;-67
2022/03/31 08:16:50;;;;;;;28.37;19.30;;;7.70;99.90;;;;;;5071105;28;20197;-67
2022/03/31 08:19:17;;;;;;;28.57;21.60;;;7.50;99.90;;;;;;5068070;28;20571;-67
2022/03/31 08:21:47;;;;;;;26.20;20.00;;;7.40;99.90;;;;;;5071881;28;20243;-67
2022/03/31 08:24:13;;;;;;;28.77;19.90;;;7.30;99.90;;;;;;5089230;28;20210;-67
2022/03/31 08:26:43;;;;;;;28.97;20.27;;;7.20;99.90;;;;;;5076343;28;20248;-68
2022/03/31 08:29:10;;;;;;;26.00;20.27;;;7.20;99.90;;;;;;5069343;28;20197;-67
2022/03/31 08:31:36;;;;;;;29.93;19.73;;;7.30;99.90;;;;;;5069161;28;20257;-67
2022/03/31 08:34:04;;;;;;;28.70;21.57;;;7.40;99.90;;;;;;5070379;28;20544;-68
2022/03/31 08:36:29;;;;;;;25.60;19.73;;;7.60;99.90;;;;;;5069879;28;20213;-67
2022/03/31 08:38:56;;;;;;;29.00;20.60;;;7.70;99.90;;;;;;5069461;28;20640;-67
2022/03/31 08:41:26;;;;;;;23.97;18.87;;;7.90;99.90;;;;;;5070151;28;20189;-67
2022/03/31 08:43:52;;;;;;;24.60;18.77;;;7.90;99.90;;;;;;5069203;28;20683;-68
2022/03/31 08:46:18;;;;;;;23.10;19.20;;;7.80;99.90;;;;;;5069682;28;20202;-67
2022/03/31 08:48:44;;;;;;;24.40;19.13;;;7.70;99.90;;;;;;5070450;28;20163;-68
2022/03/31 08:51:10;;;;;;;27.47;19.67;;;7.70;99.90;;;;;;5069912;28;20178;-68
2022/03/31 08:53:36;;;;;;;24.80;18.67;;;7.60;99.90;;;;;;5068571;28;20209;-67
2022/03/31 08:56:03;;;;;;;24.37;17.70;;;7.50;99.90;;;;;;5069901;28;20178;-67
2022/03/31 08:58:29;;;;;;;25.90;19.27;;;7.60;99.90;;;;;;5070348;28;20265;-68
2022/03/31 09:00:55;;;;;;;22.30;17.47;;;7.60;99.90;;;;;;5072171;28;20269;-67
2022/03/31 09:03:20;;;;;;;20.47;16.87;;;7.50;99.90;;;;;;5070185;28;20202;-68
2022/03/31 09:05:52;;;;;;;22.67;18.63;;;7.40;99.90;;;;;;5074604;28;20181;-68
2022/03/31 09:08:18;;;;;;;26.90;19.33;;;7.30;99.90;;;;;;5079346;28;20170;-68
2022/03/31 09:10:49;;;;;;;24.17;18.57;;;7.20;99.90;;;;;;5074162;28;20541;-67
2022/03/31 09:13:19;;;;;;;25.60;17.13;;;7.10;99.90;;;;;;5072274;28;20588;-67
2022/03/31 09:16:01;;;;;;;26.20;18.07;;;7.10;99.90;;;;;;5073555;28;20174;-67
2022/03/31 09:18:28;;;;;;;26.57;18.83;;;7.00;99.90;;;;;;5073447;28;20227;-67
2022/03/31 09:20:57;;;;;;;23.77;18.80;;;7.10;99.90;;;;;;5072431;28;20548;-67
2022/03/31 09:23:28;;;;;;;26.00;19.97;;;7.10;99.90;;;;;;5072803;28;20217;-67
2022/03/31 09:26:03;;;;;;;25.23;19.73;;;7.10;99.90;;;;;;5071481;28;20171;-67
2022/03/31 09:28:29;;;;;;;24.17;19.07;;;7.20;99.90;;;;;;5072019;28;20639;-67
2022/03/31 09:30:56;;;;;;;27.00;19.30;;;7.40;99.90;;;;;;5072092;28;20174;-67
2022/03/31 09:33:33;;;;;;;25.33;19.53;;;7.60;99.90;;;;;;5073462;28;20607;-72
2022/03/31 09:36:00;;;;;;;28.47;20.63;;;7.80;99.90;;;;;;5076467;28;20403;-68
2022/03/31 09:38:26;;;;;;;25.60;19.00;;;8.00;99.90;;;;;;5080537;28;20189;-67
2022/03/31 09:40:52;;;;;;;25.47;19.93;;;8.00;99.90;;;;;;5071245;28;20178;-67
2022/03/31 09:43:18;;;;;;;25.07;19.27;;;8.20;99.90;;;;;;5072315;28;20281;-68
2022/03/31 09:45:44;;;;;;;22.50;18.73;;;8.30;99.90;;;;;;5069921;28;20273;-67
2022/03/31 09:48:24;;;;;;;24.67;18.53;;;8.40;99.90;;;;;;5071702;28;20698;-68
2022/03/31 09:50:50;;;;;;;21.00;18.80;;;8.40;99.90;;;;;;5071928;28;20181;-67
2022/03/31 09:53:16;;;;;;;24.03;19.87;;;8.40;99.90;;;;;;5072678;28;20170;-67
2022/03/31 09:55:43;;;;;;;21.37;17.90;;;8.30;99.90;;;;;;5072850;28;20178;-67
2022/03/31 09:58:12;;;;;;;25.27;18.50;;;8.30;99.90;;;;;;5072864;28;20675;-67
2022/03/31 10:00:38;;;;;;;22.57;18.13;;;8.20;99.90;;;;;;5072135;28;20536;-67
2022/03/31 10:03:05;;;;;;;23.17;19.30;;;8.10;99.90;;;;;;5071488;28;20288;-67
2022/03/31 10:05:32;;;;;;;24.30;20.10;;;7.90;99.90;;;;;;5069166;28;20174;-68
2022/03/31 10:07:59;;;;;;;23.23;20.83;;;7.80;99.90;;;;;;5070989;28;20193;-68
2022/03/31 10:10:27;;;;;;;28.37;19.27;;;7.90;99.90;;;;;;5071652;28;20163;-68
2022/03/31 10:13:07;;;;;;;26.87;19.60;;;8.10;99.90;;;;;;5072267;28;20538;-67
2022/03/31 10:15:36;;;;;;;24.77;20.60;;;8.20;99.90;;;;;;5070200;28;20546;-68
2022/03/31 10:18:04;;;;;;;25.57;19.50;;;8.20;99.90;;;;;;5072154;28;20693;-68
2022/03/31 10:20:30;;;;;;;22.93;19.63;;;8.10;99.90;;;;;;5071489;28;20186;-68
2022/03/31 10:25:46;;;;;;;23.17;19.30;;;7.80;99.90;;;;;;5057019;28;20185;-67
2022/03/31 10:28:13;;;;;;;26.30;21.23;;;7.90;99.90;;;;;;5071718;28;20278;-68
2022/03/31 10:30:51;;;;;;;23.60;19.30;;;8.00;99.90;;;;;;5070119;28;20225;-68
2022/03/31 10:33:42;;;;;;;23.47;18.80;;;8.00;99.90;;;;;;5071121;28;20546;-68
2022/03/31 10:36:16;;;;;;;22.20;19.07;;;8.00;99.90;;;;;;5071827;28;20179;-69
2022/03/31 10:38:57;;;;;;;27.47;20.90;;;8.00;99.90;;;;;;5071423;28;20266;-67
2022/03/31 10:41:31;;;;;;;26.87;19.30;;;7.90;99.90;;;;;;5071924;28;20185;-67
2022/03/31 10:43:58;;;;;;;26.43;19.50;;;7.60;99.90;;;;;;5071034;28;20213;-68
2022/03/31 10:46:25;;;;;;;27.53;19.87;;;7.60;99.90;;;;;;5071512;28;20190;-67
2022/03/31 10:48:56;;;;;;;24.90;20.23;;;7.50;99.90;;;;;;5070646;28;20584;-68
2022/03/31 10:51:32;;;;;;;25.97;20.40;;;7.70;99.90;;;;;;5071400;28;20170;-67
2022/03/31 10:53:59;;;;;;;25.37;19.30;;;7.80;99.90;;;;;;5072238;28;20253;-68
2022/03/31 10:56:28;;;;;;;21.57;19.20;;;7.90;99.90;;;;;;5069780;28;20198;-68
2022/03/31 10:58:56;;;;;;;29.23;19.60;;;8.00;99.90;;;;;;5070418;28;20182;-67
2022/03/31 11:01:25;;;;;;;23.80;18.77;;;8.00;99.90;;;;;;5071788;28;20190;-67
2022/03/31 11:03:51;;;;;;;27.00;18.73;;;7.90;99.90;;;;;;5070805;28;20675;-68
2022/03/31 11:06:20;;;;;;;26.43;19.97;;;7.80;99.90;;;;;;5070140;28;20190;-67
2022/03/31 11:08:48;;;;;;;24.10;20.37;;;7.80;99.90;;;;;;5071397;28;20674;-68
2022/03/31 11:11:19;;;;;;;26.17;20.90;;;7.90;99.90;;;;;;5071539;28;20174;-67
2022/03/31 11:13:45;;;;;;;29.33;20.30;;;8.00;99.90;;;;;;5071472;28;20185;-68
2022/03/31 11:16:11;;;;;;;22.60;19.43;;;8.10;99.90;;;;;;5070865;28;20162;-68
2022/03/31 11:18:37;;;;;;;23.47;19.63;;;8.10;99.90;;;;;;5070644;28;20201;-70
2022/03/31 11:21:03;;;;;;;36.70;19.63;;;8.00;99.90;;;;;;5069652;28;20190;-68
2022/03/31 11:23:30;;;;;;;30.87;19.77;;;8.20;99.90;;;;;;5071242;28;20743;-68
2022/03/31 11:25:57;;;;;;;24.77;20.23;;;8.40;99.90;;;;;;5071402;28;20185;-67
2022/03/31 11:28:29;;;;;;;21.57;17.50;;;8.40;99.90;;;;;;5069583;28;20174;-68
2022/03/31 11:30:55;;;;;;;20.57;16.20;;;8.50;99.90;;;;;;5071537;28;20170;-67
2022/03/31 11:33:21;;;;;;;21.43;16.80;;;8.60;99.90;;;;;;5069920;28;20180;-68
2022/03/31 11:35:52;;;;;;;19.63;16.30;;;8.80;99.90;;;;;;5069820;28;20186;-67
2022/03/31 11:38:18;;;;;;;20.10;16.10;;;8.80;99.90;;;;;;5071249;28;20236;-68
2022/03/31 11:40:46;;;;;;;19.83;16.63;;;8.80;99.90;;;;;;5071466;28;20567;-68
2022/03/31 11:43:15;;;;;;;21.70;18.13;;;9.00;99.90;;;;;;5069632;28;20210;-68
2022/03/31 11:45:43;;;;;;;22.90;18.27;;;9.20;99.90;;;;;;5069736;28;20253;-67
2022/03/31 11:48:13;;;;;;;20.87;17.20;;;9.30;99.90;;;;;;5076317;28;20614;-67
2022/03/31 11:50:50;;;;;;;21.67;17.97;;;9.10;99.90;;;;;;5081477;28;20174;-68
2022/03/31 11:53:21;;;;;;;23.93;17.37;;;9.10;99.90;;;;;;5070155;28;20192;-69
2022/03/31 11:56:06;;;;;;;21.30;17.47;;;9.30;99.90;;;;;;5070300;28;20179;-68
2022/03/31 11:58:42;;;;;;;19.47;17.00;;;9.30;99.90;;;;;;5070211;28;20519;-68
2022/03/31 12:01:07;;;;;;;20.87;16.57;;;9.30;99.90;;;;;;5070557;28;20550;-67
2022/03/31 12:03:38;;;;;;;22.30;17.57;;;9.30;99.90;;;;;;5068983;28;20292;-68
2022/03/31 12:06:05;;;;;;;18.43;16.43;;;9.00;99.90;;;;;;5068513;28;20174;-67
2022/03/31 12:08:32;;;;;;;19.50;16.90;;;8.80;99.90;;;;;;5068886;28;20181;-66
2022/03/31 12:10:58;;;;;;;21.50;17.67;;;8.80;99.90;;;;;;5070206;28;20225;-67
2022/03/31 12:13:26;;;;;;;24.67;17.77;;;8.90;99.90;;;;;;5068789;28;20232;-67
2022/03/31 12:16:09;;;;;;;19.30;17.20;;;8.80;99.90;;;;;;5070035;28;20182;-67
2022/03/31 12:18:35;;;;;;;19.37;17.23;;;8.70;99.90;;;;;;5070135;28;20174;-69
2022/03/31 12:21:04;;;;;;;22.03;17.03;;;8.80;99.90;;;;;;5070313;28;20190;-68
2022/03/31 12:23:30;;;;;;;22.23;17.70;;;8.80;99.90;;;;;;5070351;28;20682;-67
2022/03/31 12:25:56;;;;;;;22.17;17.33;;;8.70;99.90;;;;;;5068607;28;20175;-67
2022/03/31 12:28:25;;;;;;;21.37;16.67;;;8.70;99.90;;;;;;5070337;28;20166;-68
2022/03/31 12:30:56;;;;;;;23.27;19.27;;;8.70;99.90;;;;;;5068514;28;20174;-69
2022/03/31 12:33:27;;;;;;;26.67;19.77;;;8.60;99.90;;;;;;5073207;28;21456;-68
2022/03/31 12:36:04;;;;;;;23.27;17.83;;;8.40;99.90;;;;;;5074620;28;20174;-67
2022/03/31 12:38:36;;;;;;;27.77;19.30;;;8.40;99.90;;;;;;5074580;28;20178;-68
2022/03/31 12:41:06;;;;;;;25.97;20.43;;;8.10;99.90;;;;;;5073405;28;20592;-67